createdAt,value
2019-02-21T00:02:22.016Z,27.33
2019-02-21T00:05:00.984Z,21.97
2019-02-21T00:07:32.952Z,23.47
2019-02-21T00:10:10.521Z,28.20
2019-02-21T00:12:43.116Z,26.70
2019-02-21T00:15:14.216Z,29.67
2019-02-21T00:17:47.803Z,27.00
2019-02-21T00:20:21.119Z,25.77
2019-02-21T00:22:55.133Z,24.57
2019-02-21T00:25:26.216Z,29.00
2019-02-21T00:28:00.716Z,25.33
2019-02-21T00:30:35.560Z,26.48
2019-02-21T00:33:10.442Z,25.53
2019-02-21T00:35:41.967Z,22.77
2019-02-21T00:38:17.848Z,26.53
2019-02-21T00:40:48.873Z,30.00
2019-02-21T00:43:19.781Z,29.90
2019-02-21T00:45:57.122Z,24.67
2019-02-21T00:48:29.345Z,32.33
2019-02-21T00:51:00.497Z,26.20
2019-02-21T00:53:38.847Z,28.10
2019-02-21T00:59:39.174Z,32.77
2019-02-21T01:02:12.168Z,29.30
2019-02-21T01:04:44.529Z,31.90
2019-02-21T01:07:20.508Z,31.77
2019-02-21T01:09:53.235Z,33.60
2019-02-21T01:12:24.289Z,33.20
2019-02-21T01:14:55.701Z,33.03
2019-02-21T01:17:27.029Z,31.00
2019-02-21T01:20:06.277Z,32.17
2019-02-21T01:22:41.332Z,29.23
2019-02-21T01:25:12.750Z,42.07
2019-02-21T01:27:47.008Z,31.93
2019-02-21T01:30:17.959Z,37.17
2019-02-21T01:32:53.779Z,33.13
2019-02-21T01:35:26.514Z,34.73
2019-02-21T01:38:17.464Z,34.90
2019-02-21T01:40:52.458Z,38.87
2019-02-21T01:43:25.308Z,38.07
2019-02-21T01:46:01.740Z,41.80
2019-02-21T01:48:33.712Z,36.13
2019-02-21T01:51:07.134Z,34.33
2019-02-21T01:53:42.711Z,39.37
2019-02-21T01:56:15.771Z,39.63
2019-02-21T01:58:47.773Z,39.57
2019-02-21T02:01:22.229Z,39.07
2019-02-21T02:03:53.567Z,41.60
2019-02-21T02:06:25.274Z,38.70
2019-02-21T02:08:58.493Z,41.93
2019-02-21T02:11:31.134Z,41.67
2019-02-21T02:14:03.875Z,45.57
2019-02-21T02:16:37.199Z,46.30
2019-02-21T02:19:09.112Z,50.33
2019-02-21T02:21:42.418Z,42.23
2019-02-21T02:24:17.711Z,52.07
2019-02-21T02:26:49.775Z,54.57
2019-02-21T02:29:29.928Z,43.27
2019-02-21T02:32:01.620Z,46.00
2019-02-21T02:34:33.976Z,37.63
2019-02-21T02:37:10.357Z,58.35
2019-02-21T02:39:42.225Z,40.37
2019-02-21T02:42:14.183Z,40.27
2019-02-21T02:44:46.109Z,45.30
2019-02-21T02:47:19.346Z,40.27
2019-02-21T02:49:53.505Z,34.30
2019-02-21T02:52:29.901Z,39.40
2019-02-21T02:55:02.539Z,32.77
2019-02-21T02:57:33.776Z,31.33
2019-02-21T03:00:10.568Z,36.93
2019-02-21T03:02:43.460Z,27.63
2019-02-21T03:05:18.120Z,32.50
2019-02-21T03:07:50.937Z,28.30
2019-02-21T03:10:24.618Z,26.50
2019-02-21T03:12:55.847Z,24.37
2019-02-21T03:15:27.218Z,31.00
2019-02-21T03:18:00.699Z,31.33
2019-02-21T03:20:32.869Z,20.17
2019-02-21T03:23:07.717Z,26.60
2019-02-21T03:25:40.757Z,26.73
2019-02-21T03:28:13.226Z,34.47
2019-02-21T03:30:55.935Z,27.30
2019-02-21T03:33:27.171Z,31.17
2019-02-21T03:35:59.368Z,24.10
2019-02-21T03:38:34.863Z,33.57
2019-02-21T03:41:12.619Z,30.07
2019-02-21T03:43:47.107Z,32.90
2019-02-21T03:46:19.148Z,26.30
2019-02-21T03:48:50.627Z,25.23
2019-02-21T03:51:22.706Z,32.10
2019-02-21T03:53:57.441Z,27.10
2019-02-21T03:56:29.152Z,30.27
2019-02-21T03:59:00.194Z,36.00
2019-02-21T04:01:32.920Z,27.00
2019-02-21T04:04:13.332Z,26.77
2019-02-21T04:06:48.450Z,30.50
2019-02-21T04:09:21.595Z,23.63
2019-02-21T04:12:03.956Z,27.83
2019-02-21T04:14:38.766Z,24.63
2019-02-21T04:17:13.888Z,24.10
2019-02-21T04:19:47.671Z,28.55
2019-02-21T04:22:19.884Z,29.30
2019-02-21T04:24:50.801Z,33.63
2019-02-21T04:27:27.436Z,31.07
2019-02-21T04:30:01.443Z,23.60
2019-02-21T04:32:34.235Z,22.40
2019-02-21T04:35:18.755Z,29.43
2019-02-21T04:37:53.259Z,25.90
2019-02-21T04:40:26.459Z,28.13
2019-02-21T04:43:12.593Z,37.33
2019-02-21T04:45:44.364Z,30.02
2019-02-21T04:48:17.012Z,24.83
2019-02-21T04:50:50.072Z,24.97
2019-02-21T04:53:30.327Z,26.53
2019-02-21T04:56:25.227Z,25.10
2019-02-21T04:58:57.473Z,24.63
2019-02-21T05:05:42.244Z,30.40
2019-02-21T05:08:17.231Z,30.43
2019-02-21T05:10:53.146Z,39.03
2019-02-21T05:13:25.890Z,30.93
2019-02-21T05:15:57.007Z,33.90
2019-02-21T05:18:42.669Z,30.87
2019-02-21T05:21:30.919Z,36.33
2019-02-21T05:24:09.366Z,31.20
2019-02-21T05:27:03.743Z,38.17
2019-02-21T05:29:41.998Z,36.17
2019-02-21T05:32:48.610Z,38.00
2019-02-21T05:35:46.338Z,41.30
2019-02-21T05:38:40.580Z,37.07
2019-02-21T05:41:31.431Z,35.97
2019-02-21T05:44:25.504Z,36.13
2019-02-21T05:47:16.157Z,43.28
2019-02-21T05:50:12.806Z,42.70
2019-02-21T05:53:08.813Z,39.67
2019-02-21T05:55:59.605Z,36.90
2019-02-21T05:58:45.844Z,47.83
2019-02-21T06:01:48.252Z,41.27
2019-02-21T06:05:08.733Z,37.07
2019-02-21T06:12:00.839Z,48.43
2019-02-21T06:18:20.424Z,54.07
2019-02-21T06:21:24.114Z,49.87
2019-02-21T06:24:16.683Z,56.00
2019-02-21T06:27:08.621Z,53.83
2019-02-21T06:33:52.606Z,56.33
2019-02-21T06:36:47.131Z,59.70
2019-02-21T06:39:37.289Z,54.67
2019-02-21T06:42:16.329Z,47.17
2019-02-21T06:44:51.989Z,55.57
2019-02-21T06:47:37.775Z,57.63
2019-02-21T06:50:26.451Z,55.87
2019-02-21T06:52:55.992Z,53.60
2019-02-21T06:55:31.542Z,59.10
2019-02-21T06:58:09.708Z,56.60
2019-02-21T07:00:49.547Z,61.95
2019-02-21T07:03:45.364Z,54.27
2019-02-21T07:06:32.187Z,59.63
2019-02-21T07:09:09.032Z,51.07
2019-02-21T07:11:48.429Z,66.73
2019-02-21T10:32:18.667Z,42.60
2019-02-21T10:35:07.632Z,60.20
2019-02-21T10:38:06.097Z,45.08
2019-02-21T10:40:54.864Z,47.27
2019-02-21T10:43:43.618Z,43.20
2019-02-21T10:47:05.406Z,41.90
2019-02-21T10:50:14.042Z,48.40
2019-02-21T10:53:43.067Z,43.63
2019-02-21T10:56:52.251Z,44.30
2019-02-21T10:59:47.377Z,38.87
2019-02-21T11:03:02.352Z,37.60
2019-02-21T11:06:07.685Z,44.20
2019-02-21T11:09:01.022Z,38.13
2019-02-21T11:11:39.332Z,44.30
2019-02-21T11:14:52.822Z,36.87
2019-02-21T11:17:57.706Z,39.50
2019-02-21T11:20:50.876Z,36.33
2019-02-21T11:23:52.873Z,52.63
2019-02-21T11:27:16.255Z,33.30
2019-02-21T11:33:21.884Z,36.00
2019-02-21T11:36:57.844Z,29.80
2019-02-21T11:43:19.502Z,33.60
2019-02-21T11:46:37.264Z,31.33
2019-02-21T11:52:11.541Z,28.13
2019-02-21T11:55:16.223Z,31.03
2019-02-21T11:58:25.705Z,25.95
2019-02-21T12:01:26.295Z,27.97
2019-02-21T12:07:12.787Z,38.47
2019-02-21T12:10:18.075Z,23.00
2019-02-21T12:13:15.342Z,30.63
2019-02-21T12:16:06.548Z,31.77
2019-02-21T12:19:03.586Z,28.17
2019-02-21T12:21:58.705Z,24.93
2019-02-21T12:28:31.471Z,27.17
2019-02-21T12:31:31.235Z,26.47
2019-02-21T12:34:44.698Z,23.70
2019-02-21T12:41:13.423Z,24.05
2019-02-21T12:44:31.541Z,26.57
2019-02-21T12:48:07.282Z,29.73
2019-02-21T12:51:07.795Z,21.37
2019-02-21T12:54:34.531Z,34.03
2019-02-21T12:58:02.780Z,30.03
2019-02-21T13:01:19.994Z,28.77
2019-02-21T13:08:08.116Z,26.73
2019-02-21T13:11:20.754Z,29.70
2019-02-21T13:18:43.771Z,26.80
2019-02-21T13:21:57.777Z,26.37
2019-02-21T13:24:40.724Z,29.43
2019-02-21T13:28:08.334Z,54.37
2019-02-21T13:31:36.920Z,28.10
2019-02-21T13:34:50.778Z,26.23
2019-02-21T13:38:03.737Z,22.30
2019-02-21T13:45:32.600Z,31.60
2019-02-21T13:49:09.153Z,25.50
2019-02-21T13:52:41.136Z,28.57
2019-02-21T13:56:58.447Z,36.13
2019-02-21T14:00:17.039Z,27.40
2019-02-21T14:12:32.873Z,26.73
2019-02-21T14:15:49.296Z,32.27
2019-02-21T14:19:00.537Z,25.73
2019-02-21T14:22:05.565Z,32.37
2019-02-21T14:25:21.921Z,24.60
2019-02-21T14:28:43.258Z,29.80
2019-02-21T14:32:24.342Z,24.90
2019-02-21T14:39:55.371Z,37.83
2019-02-21T14:43:16.252Z,32.67
2019-02-21T14:46:20.015Z,29.13
2019-02-21T15:09:35.050Z,26.53
2019-02-21T15:29:05.040Z,30.30
2019-02-21T15:33:15.495Z,32.10
2019-02-21T15:39:31.514Z,39.50
2019-02-21T15:42:31.020Z,32.27
2019-02-21T15:48:37.421Z,28.30
2019-02-21T15:51:48.963Z,38.73
2019-02-21T15:58:04.999Z,30.83
2019-02-21T16:01:08.818Z,28.50
2019-02-21T16:04:03.443Z,27.57
2019-02-21T16:06:51.680Z,37.17
2019-02-21T16:09:46.501Z,26.17
2019-02-21T16:12:33.409Z,34.10
2019-02-21T16:15:25.508Z,29.73
2019-02-21T16:18:15.204Z,28.80
2019-02-21T16:21:48.358Z,30.20
2019-02-21T16:24:28.339Z,31.93
2019-02-21T16:27:24.197Z,28.07
2019-02-21T16:45:53.716Z,29.77
2019-02-21T16:49:42.221Z,28.65
2019-02-21T16:56:58.014Z,28.30
2019-02-21T17:07:39.483Z,36.57
2019-02-21T17:10:48.298Z,33.33
2019-02-21T17:13:54.095Z,42.45
2019-02-21T19:02:02.268Z,35.90
2019-02-21T19:04:51.239Z,26.93
2019-02-21T19:07:58.488Z,27.00
2019-02-21T20:31:59.019Z,34.43
2019-02-21T20:34:59.371Z,40.10
2019-02-21T20:38:31.577Z,34.90
2019-02-21T20:45:37.591Z,46.23
2019-02-21T20:49:07.356Z,49.67
2019-02-21T20:52:47.399Z,55.90
2019-02-21T20:55:30.192Z,58.43
2019-02-21T20:58:51.855Z,65.13
2019-02-21T21:01:43.811Z,62.47
2019-02-21T21:04:42.330Z,61.70
2019-02-21T21:08:08.706Z,49.87
2019-02-21T21:12:03.056Z,66.17
2019-02-21T21:14:37.531Z,64.77
2019-02-21T21:17:59.387Z,66.33
2019-02-21T21:22:17.995Z,59.60
2019-02-21T21:24:58.106Z,69.00
2019-02-21T21:28:18.426Z,62.93
2019-02-21T21:31:34.768Z,71.17
2019-02-21T21:34:27.754Z,63.90
2019-02-21T21:37:25.702Z,73.57
2019-02-21T21:40:33.292Z,50.03
2019-02-21T21:43:50.250Z,59.00
2019-02-21T21:46:57.785Z,75.83
2019-02-21T21:49:44.942Z,76.43
2019-02-21T21:52:37.393Z,75.13
2019-02-21T21:55:37.366Z,64.73
2019-02-21T21:58:42.734Z,65.70
2019-02-21T22:01:59.970Z,68.17
2019-02-21T22:04:55.363Z,60.53
2019-02-21T22:12:03.661Z,75.03
2019-02-21T22:18:25.945Z,65.50
2019-02-21T22:21:49.676Z,62.93
2019-02-21T22:24:53.494Z,68.00
2019-02-21T22:28:09.758Z,68.25
2019-02-21T22:34:17.951Z,64.70
2019-02-21T22:37:36.705Z,64.03
2019-02-21T22:40:22.833Z,82.50
2019-02-21T22:43:45.340Z,85.47
2019-02-21T22:46:33.690Z,73.87
2019-02-21T22:49:16.421Z,92.93
2019-02-21T22:52:03.394Z,96.50
2019-02-21T22:54:47.194Z,108.60
2019-02-21T22:57:28.221Z,100.53
2019-02-21T23:00:13.066Z,90.10
2019-02-21T23:03:02.832Z,101.50
2019-02-21T23:06:13.418Z,136.73
2019-02-21T23:09:03.939Z,109.13
2019-02-21T23:12:08.404Z,111.55
2019-02-21T23:14:56.985Z,114.77
2019-02-21T23:17:39.108Z,107.80
2019-02-21T23:20:45.342Z,110.03
2019-02-21T23:23:54.301Z,96.90
2019-02-21T23:26:59.893Z,102.17
2019-02-21T23:29:33.933Z,112.27
2019-02-21T23:32:38.476Z,96.53
2019-02-21T23:38:50.787Z,104.47
2019-02-21T23:41:50.024Z,108.45
2019-02-21T23:44:27.539Z,104.73
2019-02-21T23:47:11.006Z,99.60
2019-02-21T23:50:01.741Z,98.03
2019-02-21T23:52:43.482Z,98.43
2019-02-21T23:55:28.817Z,93.12
2019-02-21T23:58:05.483Z,87.67
